Home > Products > Valid Products > MTR

000
SAUS46 KMTR 271859
MTRMHS
METAR KMHS 271856Z AUTO VRB03KT 10SM CLR 23/07 A3002 RMK AO2 SLP161
T02330072





000
SAUS46 KMTR 271657
MTRMHS
METAR KMHS 271656Z AUTO 00000KT 10SM CLR 20/06 A3003 RMK AO2 SLP163
T02000056





000
SAUS46 KMTR 271657
MTRMHS
METAR KMHS 271656Z AUTO 00000KT 10SM CLR 20/06 A3003 RMK AO2 SLP163
T02000056





000
SAUS46 KMTR 271557
MTRMHS
METAR KMHS 271556Z AUTO 00000KT 10SM CLR 17/07 A3004 RMK AO2 SLP168
T01720067





000
SAUS46 KMTR 271459
MTRMHS
METAR KMHS 271456Z AUTO 00000KT 10SM CLR 14/07 A3005 RMK AO2 SLP173
T01390072 51002





000
SAUS46 KMTR 271459
MTRMHS
METAR KMHS 271456Z AUTO 00000KT 10SM CLR 14/07 A3005 RMK AO2 SLP173
T01390072 51002





000
SAUS46 KMTR 271359
MTRMHS
METAR KMHS 271356Z AUTO 00000KT 10SM CLR 09/07 A3004 RMK AO2 SLP176
T00890067





000
SAUS46 KMTR 271257
MTRMHS
METAR KMHS 271256Z AUTO 00000KT 10SM CLR 06/04 A3004 RMK AO2 SLP177
T00560039





000
SAUS46 KMTR 271257
MTRMHS
METAR KMHS 271256Z AUTO 00000KT 10SM CLR 06/04 A3004 RMK AO2 SLP177
T00560039





000
SAUS46 KMTR 271157
MTRMHS
METAR KMHS 271156Z AUTO 06003KT 10SM CLR 06/04 A3004 RMK AO2 SLP174
T00610044 10133 20061 51003





000
SAUS46 KMTR 271157
MTRMHS
METAR KMHS 271156Z AUTO 06003KT 10SM CLR 06/04 A3004 RMK AO2 SLP174
T00610044 10133 20061 51003





000
SAUS46 KMTR 271059
MTRMHS
METAR KMHS 271056Z AUTO 00000KT 10SM CLR 07/05 A3004 RMK AO2 SLP171
T00720050





000
SAUS46 KMTR 271059
MTRMHS
METAR KMHS 271056Z AUTO 00000KT 10SM CLR 07/05 A3004 RMK AO2 SLP171
T00720050





000
SAUS46 KMTR 270857
MTRMHS
METAR KMHS 270856Z AUTO 00000KT 10SM CLR 08/06 A3003 RMK AO2 SLP166
T00830056 51006





000
SAUS46 KMTR 270659
MTRMHS
METAR KMHS 270656Z AUTO 00000KT 10SM CLR 11/07 A3002 RMK AO2 SLP162
T01110072





000
SAUS46 KMTR 270659
MTRMHS
METAR KMHS 270656Z AUTO 00000KT 10SM CLR 11/07 A3002 RMK AO2 SLP162
T01110072





000
SAUS46 KMTR 270559
MTRMHS
METAR KMHS 270556Z AUTO 00000KT 10SM FEW085 13/08 A3001 RMK AO2
SLP156 60000 T01280083 10217 20128 53015





000
SAUS46 KMTR 270559
MTRMHS
METAR KMHS 270556Z AUTO 00000KT 10SM FEW085 13/08 A3001 RMK AO2
SLP156 60000 T01280083 10217 20128 53015





000
SAUS46 KMTR 270457
MTRMHS
METAR KMHS 270456Z AUTO 00000KT 10SM SCT090 14/12 A2999 RMK AO2
SLP151 T01440122





000
SAUS46 KMTR 270357
MTRMHS
METAR KMHS 270356Z AUTO 00000KT 10SM BKN070 OVC085 16/13 A2997 RMK
AO2 SLP145 T01610133





000
SAUS46 KMTR 270259
MTRMHS
METAR KMHS 270256Z AUTO 00000KT 10SM OVC085 17/12 A2996 RMK AO2
RAB08E18 SLP143 P0000 60000 T01720117 53005





    US Dept of Commerce
    National Oceanic and Atmospheric Administration
    National Weather Service
    1325 East West Highway
    Silver Spring, MD 20910
    Page Author: NWS Internet Services Team
Disclaimer
Information Quality
Credits
Glossary
Privacy Policy
Freedom of Information Act (FOIA)
About Us
Career Opportunities